sensor_id;sensor_type;location;lat;lon;timestamp;pressure;altitude;pressure_sealevel;temperature;humidity
41632;BME280;37452;51.938;4.624;2023-02-18T00:02:13;77767.31;;;-142.75;100.00
41632;BME280;37452;51.938;4.624;2023-02-18T00:04:38;77755.50;;;-142.75;100.00
41632;BME280;37452;51.938;4.624;2023-02-18T00:07:03;77753.53;;;-142.75;100.00
41632;BME280;37452;51.938;4.624;2023-02-18T00:09:29;77763.38;;;-142.75;100.00
41632;BME280;37452;51.938;4.624;2023-02-18T00:11:54;77747.63;;;-142.75;100.00
41632;BME280;37452;51.938;4.624;2023-02-18T00:14:19;77739.75;;;-142.75;100.00
41632;BME280;37452;51.938;4.624;2023-02-18T00:16:44;77733.84;;;-142.75;100.00
41632;BME280;37452;51.938;4.624;2023-02-18T00:19:16;77755.50;;;-142.75;100.00
41632;BME280;37452;51.938;4.624;2023-02-18T00:21:42;77749.59;;;-142.75;100.00
41632;BME280;37452;51.938;4.624;2023-02-18T00:24:08;77743.69;;;-142.75;100.00
41632;BME280;37452;51.938;4.624;2023-02-18T00:26:35;77735.81;;;-142.75;100.00
41632;BME280;37452;51.938;4.624;2023-02-18T00:29:01;77735.81;;;-142.75;100.00
41632;BME280;37452;51.938;4.624;2023-02-18T00:31:29;77727.94;;;-142.75;100.00
41632;BME280;37452;51.938;4.624;2023-02-18T00:33:56;77741.72;;;-142.75;100.00
41632;BME280;37452;51.938;4.624;2023-02-18T00:36:23;77731.88;;;-142.75;100.00
41632;BME280;37452;51.938;4.624;2023-02-18T00:38:50;77727.94;;;-142.75;100.00
41632;BME280;37452;51.938;4.624;2023-02-18T00:41:17;77722.00;;;-142.75;100.00
41632;BME280;37452;51.938;4.624;2023-02-18T00:43:43;77696.41;;;-142.75;100.00
41632;BME280;37452;51.938;4.624;2023-02-18T00:46:08;77710.19;;;-142.75;100.00
41632;BME280;37452;51.938;4.624;2023-02-18T00:48:34;77704.28;;;-142.75;100.00
41632;BME280;37452;51.938;4.624;2023-02-18T00:51:00;77706.25;;;-142.75;100.00
41632;BME280;37452;51.938;4.624;2023-02-18T00:53:27;77706.25;;;-142.75;100.00
41632;BME280;37452;51.938;4.624;2023-02-18T00:55:52;77706.25;;;-142.75;100.00
41632;BME280;37452;51.938;4.624;2023-02-18T00:58:18;77696.41;;;-142.75;100.00
41632;BME280;37452;51.938;4.624;2023-02-18T01:00:43;77684.59;;;-142.75;100.00
41632;BME280;37452;51.938;4.624;2023-02-18T01:03:09;77680.66;;;-142.75;100.00
41632;BME280;37452;51.938;4.624;2023-02-18T01:05:35;77676.72;;;-142.75;100.00
41632;BME280;37452;51.938;4.624;2023-02-18T01:08:01;77672.78;;;-142.75;100.00
41632;BME280;37452;51.938;4.624;2023-02-18T01:10:27;77662.94;;;-142.75;100.00
41632;BME280;37452;51.938;4.624;2023-02-18T01:12:52;77660.97;;;-142.75;100.00
41632;BME280;37452;51.938;4.624;2023-02-18T01:15:18;77655.06;;;-142.75;100.00
41632;BME280;37452;51.938;4.624;2023-02-18T01:17:43;77657.03;;;-142.75;100.00
41632;BME280;37452;51.938;4.624;2023-02-18T01:20:09;77659.00;;;-142.75;100.00
41632;BME280;37452;51.938;4.624;2023-02-18T01:22:35;77657.03;;;-142.75;100.00
41632;BME280;37452;51.938;4.624;2023-02-18T01:25:01;77649.16;;;-142.75;100.00
41632;BME280;37452;51.938;4.624;2023-02-18T01:27:27;77649.16;;;-142.75;100.00
41632;BME280;37452;51.938;4.624;2023-02-18T01:29:52;77633.41;;;-142.75;100.00
41632;BME280;37452;51.938;4.624;2023-02-18T01:32:17;77633.41;;;-142.75;100.00
41632;BME280;37452;51.938;4.624;2023-02-18T01:34:43;77635.38;;;-142.75;100.00
41632;BME280;37452;51.938;4.624;2023-02-18T01:37:08;77627.50;;;-142.75;100.00
41632;BME280;37452;51.938;4.624;2023-02-18T01:39:33;77625.53;;;-142.75;100.00
41632;BME280;37452;51.938;4.624;2023-02-18T01:41:58;77627.50;;;-142.75;100.00
41632;BME280;37452;51.938;4.624;2023-02-18T01:44:26;77621.59;;;-142.75;100.00
41632;BME280;37452;51.938;4.624;2023-02-18T01:46:51;77603.88;;;-142.75;100.00
41632;BME280;37452;51.938;4.624;2023-02-18T01:49:31;77607.81;;;-142.75;100.00
41632;BME280;37452;51.938;4.624;2023-02-18T01:52:06;77603.88;;;-142.75;100.00
41632;BME280;37452;51.938;4.624;2023-02-18T01:54:39;77584.19;;;-142.75;100.00
41632;BME280;37452;51.938;4.624;2023-02-18T01:59:41;77580.25;;;-142.75;100.00
41632;BME280;37452;51.938;4.624;2023-02-18T02:02:12;77590.09;;;-142.75;100.00
41632;BME280;37452;51.938;4.624;2023-02-18T02:04:38;77586.16;;;-142.75;100.00
41632;BME280;37452;51.938;4.624;2023-02-18T02:07:04;77582.22;;;-142.75;100.00
41632;BME280;37452;51.938;4.624;2023-02-18T02:09:30;77576.31;;;-142.75;100.00
41632;BME280;37452;51.938;4.624;2023-02-18T02:12:02;77568.44;;;-142.75;100.00
41632;BME280;37452;51.938;4.624;2023-02-18T02:15:04;77560.56;;;-142.75;100.00
41632;BME280;37452;51.938;4.624;2023-02-18T02:23:26;77546.78;;;-142.75;100.00
41632;BME280;37452;51.938;4.624;2023-02-18T02:34:44;77546.78;;;-142.75;100.00
41632;BME280;37452;51.938;4.624;2023-02-18T02:40:35;77531.03;;;-142.75;100.00
41632;BME280;37452;51.938;4.624;2023-02-18T02:43:08;77527.09;;;-142.75;100.00
41632;BME280;37452;51.938;4.624;2023-02-18T02:53:27;77523.16;;;-142.75;100.00
41632;BME280;37452;51.938;4.624;2023-02-18T02:55:54;77507.41;;;-142.75;100.00
41632;BME280;37452;51.938;4.624;2023-02-18T02:58:20;77507.41;;;-142.75;100.00
41632;BME280;37452;51.938;4.624;2023-02-18T03:03:42;77499.53;;;-142.75;100.00
41632;BME280;37452;51.938;4.624;2023-02-18T03:06:38;77487.72;;;-142.75;100.00
41632;BME280;37452;51.938;4.624;2023-02-18T03:15:03;77493.63;;;-142.75;100.00
41632;BME280;37452;51.938;4.624;2023-02-18T03:17:33;77487.72;;;-142.75;100.00
41632;BME280;37452;51.938;4.624;2023-02-18T03:20:09;77483.78;;;-142.75;100.00
41632;BME280;37452;51.938;4.624;2023-02-18T03:22:41;77487.72;;;-142.75;100.00
41632;BME280;37452;51.938;4.624;2023-02-18T03:25:09;77475.91;;;-142.75;100.00
41632;BME280;37452;51.938;4.624;2023-02-18T03:27:40;77475.91;;;-142.75;100.00
41632;BME280;37452;51.938;4.624;2023-02-18T03:30:15;77460.13;;;-142.75;100.00
41632;BME280;37452;51.938;4.624;2023-02-18T03:32:42;77460.13;;;-142.75;100.00
41632;BME280;37452;51.938;4.624;2023-02-18T03:35:13;77450.28;;;-142.75;100.00
41632;BME280;37452;51.938;4.624;2023-02-18T03:37:44;77450.28;;;-142.75;100.00
41632;BME280;37452;51.938;4.624;2023-02-18T03:40:11;77438.47;;;-142.75;100.00
41632;BME280;37452;51.938;4.624;2023-02-18T03:42:37;77436.50;;;-142.75;100.00
41632;BME280;37452;51.938;4.624;2023-02-18T03:45:02;77430.59;;;-142.75;100.00
41632;BME280;37452;51.938;4.624;2023-02-18T03:47:28;77428.63;;;-142.75;100.00
41632;BME280;37452;51.938;4.624;2023-02-18T03:49:53;77434.53;;;-142.75;100.00
41632;BME280;37452;51.938;4.624;2023-02-18T03:52:19;77432.56;;;-142.75;100.00
41632;BME280;37452;51.938;4.624;2023-02-18T03:54:44;77418.78;;;-142.75;100.00
41632;BME280;37452;51.938;4.624;2023-02-18T03:57:09;77422.72;;;-142.75;100.00
41632;BME280;37452;51.938;4.624;2023-02-18T03:59:35;77408.94;;;-142.75;100.00
41632;BME280;37452;51.938;4.624;2023-02-18T04:02:00;77405.00;;;-142.75;100.00
41632;BME280;37452;51.938;4.624;2023-02-18T04:04:27;77406.97;;;-142.75;100.00
41632;BME280;37452;51.938;4.624;2023-02-18T04:06:52;77406.97;;;-142.75;100.00
41632;BME280;37452;51.938;4.624;2023-02-18T04:09:18;77420.75;;;-142.75;100.00
41632;BME280;37452;51.938;4.624;2023-02-18T04:11:43;77410.91;;;-142.75;100.00
41632;BME280;37452;51.938;4.624;2023-02-18T04:14:09;77406.97;;;-142.75;100.00
41632;BME280;37452;51.938;4.624;2023-02-18T04:16:37;77410.91;;;-142.75;100.00
41632;BME280;37452;51.938;4.624;2023-02-18T04:19:02;77405.00;;;-142.75;100.00
41632;BME280;37452;51.938;4.624;2023-02-18T04:21:27;77401.06;;;-142.75;100.00
41632;BME280;37452;51.938;4.624;2023-02-18T04:23:53;77405.00;;;-142.75;100.00
41632;BME280;37452;51.938;4.624;2023-02-18T04:26:18;77397.13;;;-142.75;100.00
41632;BME280;37452;51.938;4.624;2023-02-18T04:28:43;77397.13;;;-142.75;100.00
41632;BME280;37452;51.938;4.624;2023-02-18T04:31:09;77414.84;;;-142.75;100.00
41632;BME280;37452;51.938;4.624;2023-02-18T04:33:35;77405.00;;;-142.75;100.00
41632;BME280;37452;51.938;4.624;2023-02-18T04:36:00;77406.97;;;-142.75;100.00
41632;BME280;37452;51.938;4.624;2023-02-18T04:38:26;77395.16;;;-142.75;100.00
41632;BME280;37452;51.938;4.624;2023-02-18T04:40:51;77405.00;;;-142.75;100.00
41632;BME280;37452;51.938;4.624;2023-02-18T04:43:17;77401.06;;;-142.75;100.00
41632;BME280;37452;51.938;4.624;2023-02-18T04:45:42;77393.19;;;-142.75;100.00
41632;BME280;37452;51.938;4.624;2023-02-18T04:48:07;77381.38;;;-142.75;100.00
41632;BME280;37452;51.938;4.624;2023-02-18T04:50:33;77375.47;;;-142.75;100.00
41632;BME280;37452;51.938;4.624;2023-02-18T04:52:58;77379.41;;;-142.75;100.00
41632;BME280;37452;51.938;4.624;2023-02-18T04:55:23;77381.38;;;-142.75;100.00
41632;BME280;37452;51.938;4.624;2023-02-18T04:57:48;77369.56;;;-142.75;100.00
41632;BME280;37452;51.938;4.624;2023-02-18T05:00:16;77375.47;;;-142.75;100.00
41632;BME280;37452;51.938;4.624;2023-02-18T05:02:42;77373.50;;;-142.75;100.00
41632;BME280;37452;51.938;4.624;2023-02-18T05:05:08;77377.44;;;-142.75;100.00
41632;BME280;37452;51.938;4.624;2023-02-18T05:07:33;77367.59;;;-142.75;100.00
41632;BME280;37452;51.938;4.624;2023-02-18T05:09:58;77371.53;;;-142.75;100.00
41632;BME280;37452;51.938;4.624;2023-02-18T05:12:24;77361.69;;;-142.75;100.00
41632;BME280;37452;51.938;4.624;2023-02-18T05:14:49;77373.50;;;-142.75;100.00
41632;BME280;37452;51.938;4.624;2023-02-18T05:17:14;77359.72;;;-142.75;100.00
41632;BME280;37452;51.938;4.624;2023-02-18T05:19:40;77353.81;;;-142.75;100.00
41632;BME280;37452;51.938;4.624;2023-02-18T05:22:05;77351.84;;;-142.75;100.00
41632;BME280;37452;51.938;4.624;2023-02-18T05:24:30;77342.00;;;-142.75;100.00
41632;BME280;37452;51.938;4.624;2023-02-18T05:26:55;77347.91;;;-142.75;100.00
41632;BME280;37452;51.938;4.624;2023-02-18T05:29:21;77353.81;;;-142.75;100.00
41632;BME280;37452;51.938;4.624;2023-02-18T05:31:46;77349.88;;;-142.75;100.00
41632;BME280;37452;51.938;4.624;2023-02-18T05:34:11;77330.19;;;-142.75;100.00
41632;BME280;37452;51.938;4.624;2023-02-18T05:36:37;77324.28;;;-142.75;100.00
41632;BME280;37452;51.938;4.624;2023-02-18T05:39:02;77328.22;;;-142.75;100.00
41632;BME280;37452;51.938;4.624;2023-02-18T05:41:28;77326.25;;;-142.75;100.00
41632;BME280;37452;51.938;4.624;2023-02-18T05:43:53;77340.03;;;-142.75;100.00
41632;BME280;37452;51.938;4.624;2023-02-18T05:46:37;77326.25;;;-142.75;100.00
41632;BME280;37452;51.938;4.624;2023-02-18T05:49:02;77342.00;;;-142.75;100.00
41632;BME280;37452;51.938;4.624;2023-02-18T05:51:27;77338.06;;;-142.75;100.00
41632;BME280;37452;51.938;4.624;2023-02-18T05:53:53;77351.84;;;-142.75;100.00
41632;BME280;37452;51.938;4.624;2023-02-18T05:56:19;77342.00;;;-142.75;100.00
41632;BME280;37452;51.938;4.624;2023-02-18T05:58:45;77334.13;;;-142.75;100.00
41632;BME280;37452;51.938;4.624;2023-02-18T06:01:10;77330.19;;;-142.75;100.00
41632;BME280;37452;51.938;4.624;2023-02-18T06:03:35;77330.19;;;-142.75;100.00
41632;BME280;37452;51.938;4.624;2023-02-18T06:06:01;77347.91;;;-142.75;100.00
41632;BME280;37452;51.938;4.624;2023-02-18T06:08:26;77336.09;;;-142.75;100.00
41632;BME280;37452;51.938;4.624;2023-02-18T06:10:51;77336.09;;;-142.75;100.00
41632;BME280;37452;51.938;4.624;2023-02-18T06:13:17;77336.09;;;-142.75;100.00
41632;BME280;37452;51.938;4.624;2023-02-18T06:15:42;77334.13;;;-142.75;100.00
41632;BME280;37452;51.938;4.624;2023-02-18T06:18:08;77340.03;;;-142.75;100.00
41632;BME280;37452;51.938;4.624;2023-02-18T06:20:33;77330.19;;;-142.75;100.00
41632;BME280;37452;51.938;4.624;2023-02-18T06:22:58;77328.22;;;-142.75;100.00
41632;BME280;37452;51.938;4.624;2023-02-18T06:25:24;77330.19;;;-142.75;100.00
41632;BME280;37452;51.938;4.624;2023-02-18T06:27:49;77334.13;;;-142.75;100.00
41632;BME280;37452;51.938;4.624;2023-02-18T06:30:14;77332.16;;;-142.75;100.00
41632;BME280;37452;51.938;4.624;2023-02-18T06:32:40;77336.09;;;-142.75;100.00
41632;BME280;37452;51.938;4.624;2023-02-18T06:35:05;77334.13;;;-142.75;100.00
41632;BME280;37452;51.938;4.624;2023-02-18T06:37:31;77342.00;;;-142.75;100.00
41632;BME280;37452;51.938;4.624;2023-02-18T06:39:57;77338.06;;;-142.75;100.00
41632;BME280;37452;51.938;4.624;2023-02-18T06:42:22;77353.81;;;-142.75;100.00
41632;BME280;37452;51.938;4.624;2023-02-18T06:44:47;77353.81;;;-142.75;100.00
41632;BME280;37452;51.938;4.624;2023-02-18T06:47:13;77351.84;;;-142.75;100.00
41632;BME280;37452;51.938;4.624;2023-02-18T06:49:38;77349.88;;;-142.75;100.00
41632;BME280;37452;51.938;4.624;2023-02-18T06:52:04;77365.63;;;-142.75;100.00
41632;BME280;37452;51.938;4.624;2023-02-18T06:54:29;77359.72;;;-142.75;100.00
41632;BME280;37452;51.938;4.624;2023-02-18T06:56:55;77357.75;;;-142.75;100.00
41632;BME280;37452;51.938;4.624;2023-02-18T06:59:20;77369.56;;;-142.75;100.00
41632;BME280;37452;51.938;4.624;2023-02-18T07:01:45;77383.34;;;-142.75;100.00
41632;BME280;37452;51.938;4.624;2023-02-18T07:04:11;77365.63;;;-142.75;100.00
41632;BME280;37452;51.938;4.624;2023-02-18T07:06:36;77367.59;;;-142.75;100.00
41632;BME280;37452;51.938;4.624;2023-02-18T07:09:01;77379.41;;;-142.75;100.00
41632;BME280;37452;51.938;4.624;2023-02-18T07:11:26;77397.13;;;-142.75;100.00
41632;BME280;37452;51.938;4.624;2023-02-18T07:13:52;77383.34;;;-142.75;100.00
41632;BME280;37452;51.938;4.624;2023-02-18T07:16:17;77379.41;;;-142.75;100.00
41632;BME280;37452;51.938;4.624;2023-02-18T07:18:42;77385.31;;;-142.75;100.00
41632;BME280;37452;51.938;4.624;2023-02-18T07:21:07;77401.06;;;-142.75;100.00
41632;BME280;37452;51.938;4.624;2023-02-18T07:23:33;77397.13;;;-142.75;100.00
41632;BME280;37452;51.938;4.624;2023-02-18T07:26:06;77391.22;;;-142.75;100.00
41632;BME280;37452;51.938;4.624;2023-02-18T07:28:32;77412.88;;;-142.75;100.00
41632;BME280;37452;51.938;4.624;2023-02-18T07:30:57;77418.78;;;-142.75;100.00
41632;BME280;37452;51.938;4.624;2023-02-18T07:33:22;77412.88;;;-142.75;100.00
41632;BME280;37452;51.938;4.624;2023-02-18T07:35:53;77424.69;;;-142.75;100.00
41632;BME280;37452;51.938;4.624;2023-02-18T07:38:18;77410.91;;;-142.75;100.00
41632;BME280;37452;51.938;4.624;2023-02-18T07:40:44;77418.78;;;-142.75;100.00
41632;BME280;37452;51.938;4.624;2023-02-18T07:43:09;77420.75;;;-142.75;100.00
41632;BME280;37452;51.938;4.624;2023-02-18T07:45:37;77422.72;;;-142.75;100.00
41632;BME280;37452;51.938;4.624;2023-02-18T07:48:02;77432.56;;;-142.75;100.00
41632;BME280;37452;51.938;4.624;2023-02-18T07:50:28;77432.56;;;-142.75;100.00
41632;BME280;37452;51.938;4.624;2023-02-18T07:52:53;77436.50;;;-142.75;100.00
41632;BME280;37452;51.938;4.624;2023-02-18T07:55:18;77416.81;;;-142.75;100.00
41632;BME280;37452;51.938;4.624;2023-02-18T07:57:44;77432.56;;;-142.75;100.00
41632;BME280;37452;51.938;4.624;2023-02-18T08:00:21;77428.63;;;-142.75;100.00
41632;BME280;37452;51.938;4.624;2023-02-18T08:02:47;77446.34;;;-142.75;100.00
41632;BME280;37452;51.938;4.624;2023-02-18T08:05:12;77442.41;;;-142.75;100.00
41632;BME280;37452;51.938;4.624;2023-02-18T08:07:38;77426.66;;;-142.75;100.00
41632;BME280;37452;51.938;4.624;2023-02-18T08:10:04;77440.44;;;-142.75;100.00
41632;BME280;37452;51.938;4.624;2023-02-18T08:12:30;77460.13;;;-142.75;100.00
41632;BME280;37452;51.938;4.624;2023-02-18T08:14:55;77432.56;;;-142.75;100.00
41632;BME280;37452;51.938;4.624;2023-02-18T08:17:20;77430.59;;;-142.75;100.00
41632;BME280;37452;51.938;4.624;2023-02-18T08:19:45;77444.38;;;-142.75;100.00
41632;BME280;37452;51.938;4.624;2023-02-18T08:22:11;77462.13;;;-142.75;100.00
41632;BME280;37452;51.938;4.624;2023-02-18T08:24:36;77450.28;;;-142.75;100.00
41632;BME280;37452;51.938;4.624;2023-02-18T08:27:01;77456.22;;;-142.75;100.00
41632;BME280;37452;51.938;4.624;2023-02-18T08:29:26;77452.25;;;-142.75;100.00
41632;BME280;37452;51.938;4.624;2023-02-18T08:31:52;77460.13;;;-142.75;100.00
41632;BME280;37452;51.938;4.624;2023-02-18T08:34:18;77464.09;;;-142.75;100.00
41632;BME280;37452;51.938;4.624;2023-02-18T08:36:43;77448.34;;;-142.75;100.00
41632;BME280;37452;51.938;4.624;2023-02-18T08:39:09;77442.41;;;-142.75;100.00
41632;BME280;37452;51.938;4.624;2023-02-18T08:41:34;77452.25;;;-142.75;100.00
41632;BME280;37452;51.938;4.624;2023-02-18T08:43:59;77456.22;;;-142.75;100.00
41632;BME280;37452;51.938;4.624;2023-02-18T08:46:24;77440.44;;;-142.75;100.00
41632;BME280;37452;51.938;4.624;2023-02-18T08:48:50;77444.38;;;-142.75;100.00
41632;BME280;37452;51.938;4.624;2023-02-18T08:51:20;77440.44;;;-142.75;100.00
41632;BME280;37452;51.938;4.624;2023-02-18T08:53:46;77448.34;;;-142.75;100.00
41632;BME280;37452;51.938;4.624;2023-02-18T08:56:13;77448.34;;;-142.75;100.00
41632;BME280;37452;51.938;4.624;2023-02-18T08:58:39;77462.13;;;-142.75;100.00
41632;BME280;37452;51.938;4.624;2023-02-18T09:01:07;77464.09;;;-142.75;100.00
41632;BME280;37452;51.938;4.624;2023-02-18T09:03:33;77468.03;;;-142.75;100.00
41632;BME280;37452;51.938;4.624;2023-02-18T09:05:59;77466.03;;;-142.75;100.00
41632;BME280;37452;51.938;4.624;2023-02-18T09:08:25;77479.84;;;-142.75;100.00
41632;BME280;37452;51.938;4.624;2023-02-18T09:10:57;77464.09;;;-142.75;100.00
41632;BME280;37452;51.938;4.624;2023-02-18T09:13:23;77475.91;;;-142.75;100.00
41632;BME280;37452;51.938;4.624;2023-02-18T09:16:00;77468.03;;;-142.75;100.00
41632;BME280;37452;51.938;4.624;2023-02-18T09:18:27;77479.84;;;-142.75;100.00
41632;BME280;37452;51.938;4.624;2023-02-18T09:20:55;77464.09;;;-142.75;100.00
41632;BME280;37452;51.938;4.624;2023-02-18T09:23:21;77507.41;;;-142.75;100.00
41632;BME280;37452;51.938;4.624;2023-02-18T09:25:46;77493.63;;;-142.75;100.00
41632;BME280;37452;51.938;4.624;2023-02-18T09:28:11;77487.72;;;-142.75;100.00
41632;BME280;37452;51.938;4.624;2023-02-18T09:30:38;77505.44;;;-142.75;100.00
41632;BME280;37452;51.938;4.624;2023-02-18T09:33:04;77493.63;;;-142.75;100.00
41632;BME280;37452;51.938;4.624;2023-02-18T09:35:29;77497.56;;;-142.75;100.00
41632;BME280;37452;51.938;4.624;2023-02-18T09:37:54;77491.66;;;-142.75;100.00
41632;BME280;37452;51.938;4.624;2023-02-18T09:40:30;77511.34;;;-142.75;100.00
41632;BME280;37452;51.938;4.624;2023-02-18T09:42:57;77503.47;;;-142.75;100.00
41632;BME280;37452;51.938;4.624;2023-02-18T09:45:23;77511.34;;;-142.75;100.00
41632;BME280;37452;51.938;4.624;2023-02-18T09:47:49;77497.56;;;-142.75;100.00
41632;BME280;37452;51.938;4.624;2023-02-18T09:50:31;77495.59;;;-142.75;100.00
41632;BME280;37452;51.938;4.624;2023-02-18T09:52:58;77497.56;;;-142.75;100.00
41632;BME280;37452;51.938;4.624;2023-02-18T09:55:28;77477.88;;;-142.75;100.00
41632;BME280;37452;51.938;4.624;2023-02-18T09:58:07;77471.97;;;-142.75;100.00
41632;BME280;37452;51.938;4.624;2023-02-18T10:00:38;77479.84;;;-142.75;100.00
41632;BME280;37452;51.938;4.624;2023-02-18T10:03:13;77471.97;;;-142.75;100.00
41632;BME280;37452;51.938;4.624;2023-02-18T10:05:45;77477.88;;;-142.75;100.00
41632;BME280;37452;51.938;4.624;2023-02-18T10:08:24;77468.03;;;-142.75;100.00
41632;BME280;37452;51.938;4.624;2023-02-18T10:10:50;77456.22;;;-142.75;100.00
41632;BME280;37452;51.938;4.624;2023-02-18T10:13:18;77452.25;;;-142.75;100.00
41632;BME280;37452;51.938;4.624;2023-02-18T10:15:45;77448.34;;;-142.75;100.00
41632;BME280;37452;51.938;4.624;2023-02-18T10:20:42;77468.03;;;-142.75;100.00
41632;BME280;37452;51.938;4.624;2023-02-18T10:23:09;77442.41;;;-142.75;100.00
41632;BME280;37452;51.938;4.624;2023-02-18T10:25:41;77452.25;;;-142.75;100.00
41632;BME280;37452;51.938;4.624;2023-02-18T10:28:08;77446.34;;;-142.75;100.00
41632;BME280;37452;51.938;4.624;2023-02-18T10:30:42;77444.38;;;-142.75;100.00
41632;BME280;37452;51.938;4.624;2023-02-18T10:44:30;77450.28;;;-142.75;100.00
41632;BME280;37452;51.938;4.624;2023-02-18T10:52:18;77458.16;;;-142.75;100.00
41632;BME280;37452;51.938;4.624;2023-02-18T10:57:22;77444.38;;;-142.75;100.00
41632;BME280;37452;51.938;4.624;2023-02-18T11:02:38;77405.00;;;-142.75;100.00
41632;BME280;37452;51.938;4.624;2023-02-18T11:05:19;77397.13;;;-142.75;100.00
41632;BME280;37452;51.938;4.624;2023-02-18T11:07:49;77389.25;;;-142.75;100.00
41632;BME280;37452;51.938;4.624;2023-02-18T11:10:15;77385.31;;;-142.75;100.00
41632;BME280;37452;51.938;4.624;2023-02-18T11:12:45;77389.25;;;-142.75;100.00
41632;BME280;37452;51.938;4.624;2023-02-18T11:15:18;77365.63;;;-142.75;100.00
41632;BME280;37452;51.938;4.624;2023-02-18T11:17:48;77363.66;;;-142.75;100.00
41632;BME280;37452;51.938;4.624;2023-02-18T11:20:25;77379.41;;;-142.75;100.00
41632;BME280;37452;51.938;4.624;2023-02-18T11:22:51;77389.25;;;-142.75;100.00
41632;BME280;37452;51.938;4.624;2023-02-18T11:27:49;77381.38;;;-142.75;100.00
41632;BME280;37452;51.938;4.624;2023-02-18T11:30:34;77377.44;;;-142.75;100.00
41632;BME280;37452;51.938;4.624;2023-02-18T11:33:23;77357.75;;;-142.75;100.00
41632;BME280;37452;51.938;4.624;2023-02-18T11:35:56;77353.81;;;-142.75;100.00
41632;BME280;37452;51.938;4.624;2023-02-18T11:41:14;77359.72;;;-142.75;100.00
41632;BME280;37452;51.938;4.624;2023-02-18T11:43:42;77369.56;;;-142.75;100.00
41632;BME280;37452;51.938;4.624;2023-02-18T11:46:22;77353.81;;;-142.75;100.00
41632;BME280;37452;51.938;4.624;2023-02-18T11:48:48;77361.69;;;-142.75;100.00
41632;BME280;37452;51.938;4.624;2023-02-18T11:51:32;77357.75;;;-142.75;100.00
41632;BME280;37452;51.938;4.624;2023-02-18T11:54:04;77361.69;;;-142.75;100.00
41632;BME280;37452;51.938;4.624;2023-02-18T11:56:32;77349.88;;;-142.75;100.00
41632;BME280;37452;51.938;4.624;2023-02-18T11:58:59;77369.56;;;-142.75;100.00
41632;BME280;37452;51.938;4.624;2023-02-18T12:01:42;77349.88;;;-142.75;100.00
41632;BME280;37452;51.938;4.624;2023-02-18T12:04:36;77353.81;;;-142.75;100.00
41632;BME280;37452;51.938;4.624;2023-02-18T12:09:36;77338.06;;;-142.75;100.00
41632;BME280;37452;51.938;4.624;2023-02-18T12:12:15;77324.28;;;-142.75;100.00
41632;BME280;37452;51.938;4.624;2023-02-18T12:14:43;77322.31;;;-142.75;100.00
41632;BME280;37452;51.938;4.624;2023-02-18T12:17:49;77306.56;;;-142.75;100.00
41632;BME280;37452;51.938;4.624;2023-02-18T12:26:24;77288.84;;;-142.75;100.00
41632;BME280;37452;51.938;4.624;2023-02-18T12:31:53;77263.25;;;-142.75;100.00
41632;BME280;37452;51.938;4.624;2023-02-18T12:34:32;77259.31;;;-142.75;100.00
41632;BME280;37452;51.938;4.624;2023-02-18T12:40:06;77259.31;;;-142.75;100.00
41632;BME280;37452;51.938;4.624;2023-02-18T12:49:14;77253.41;;;-142.75;100.00
41632;BME280;37452;51.938;4.624;2023-02-18T12:52:13;77243.56;;;-142.75;100.00
41632;BME280;37452;51.938;4.624;2023-02-18T12:57:27;77273.09;;;-142.75;100.00
41632;BME280;37452;51.938;4.624;2023-02-18T13:02:52;77255.38;;;-142.75;100.00
41632;BME280;37452;51.938;4.624;2023-02-18T13:05:47;77237.66;;;-142.75;100.00
41632;BME280;37452;51.938;4.624;2023-02-18T13:14:13;77261.28;;;-142.75;100.00
41632;BME280;37452;51.938;4.624;2023-02-18T13:16:38;77241.59;;;-142.75;100.00
41632;BME280;37452;51.938;4.624;2023-02-18T13:19:23;77251.44;;;-142.75;100.00
41632;BME280;37452;51.938;4.624;2023-02-18T13:21:55;77227.81;;;-142.75;100.00
41632;BME280;37452;51.938;4.624;2023-02-18T13:24:33;77227.81;;;-142.75;100.00
41632;BME280;37452;51.938;4.624;2023-02-18T13:27:27;77231.75;;;-142.75;100.00
41632;BME280;37452;51.938;4.624;2023-02-18T13:30:22;77243.56;;;-142.75;100.00
41632;BME280;37452;51.938;4.624;2023-02-18T13:32:52;77235.69;;;-142.75;100.00
41632;BME280;37452;51.938;4.624;2023-02-18T13:35:28;77235.69;;;-142.75;100.00
41632;BME280;37452;51.938;4.624;2023-02-18T13:40:50;77231.75;;;-142.75;100.00
41632;BME280;37452;51.938;4.624;2023-02-18T13:43:32;77241.59;;;-142.75;100.00
41632;BME280;37452;51.938;4.624;2023-02-18T13:46:20;77225.84;;;-142.75;100.00
41632;BME280;37452;51.938;4.624;2023-02-18T13:51:33;77206.16;;;-142.75;100.00
41632;BME280;37452;51.938;4.624;2023-02-18T13:54:17;77212.06;;;-142.75;100.00
41632;BME280;37452;51.938;4.624;2023-02-18T13:56:50;77204.19;;;-142.75;100.00
41632;BME280;37452;51.938;4.624;2023-02-18T13:59:19;77202.22;;;-142.75;100.00
41632;BME280;37452;51.938;4.624;2023-02-18T14:01:47;77200.25;;;-142.75;100.00
41632;BME280;37452;51.938;4.624;2023-02-18T14:04:36;77216.00;;;-142.75;100.00
41632;BME280;37452;51.938;4.624;2023-02-18T14:12:41;77223.88;;;-142.75;100.00
41632;BME280;37452;51.938;4.624;2023-02-18T14:17:46;77245.53;;;-142.75;100.00
41632;BME280;37452;51.938;4.624;2023-02-18T14:27:39;77255.38;;;-142.75;100.00
41632;BME280;37452;51.938;4.624;2023-02-18T14:30:25;77267.19;;;-142.75;100.00
41632;BME280;37452;51.938;4.624;2023-02-18T14:32:57;77294.75;;;-142.75;100.00
41632;BME280;37452;51.938;4.624;2023-02-18T14:35:34;77292.78;;;-142.75;100.00
41632;BME280;37452;51.938;4.624;2023-02-18T14:39:21;77298.69;;;-142.75;100.00
41632;BME280;37452;51.938;4.624;2023-02-18T14:46:44;77306.56;;;-142.75;100.00